createdAt,value
2022-12-04T00:02:23.709Z,0.18
2022-12-04T00:04:50.220Z,0.18
2022-12-04T00:07:16.839Z,0.13
2022-12-04T00:09:43.191Z,0.06
2022-12-04T00:12:09.590Z,0.11
2022-12-04T00:15:00.477Z,0.04
2022-12-04T00:17:22.278Z,0.00
2022-12-04T00:19:48.639Z,0.01
2022-12-04T00:22:15.048Z,0.03
2022-12-04T00:24:41.409Z,0.07
2022-12-04T00:27:07.745Z,0.04
2022-12-04T00:29:34.143Z,0.04
2022-12-04T00:32:00.519Z,0.07
2022-12-04T00:34:28.263Z,-0.05
2022-12-04T00:36:54.622Z,-0.14
2022-12-04T00:39:21.024Z,-0.11
2022-12-04T00:41:47.368Z,-0.09
2022-12-04T00:44:13.740Z,-0.01
2022-12-04T00:46:40.118Z,0.00
2022-12-04T00:49:06.480Z,-0.08
2022-12-04T00:51:32.819Z,-0.06
2022-12-04T00:53:59.369Z,0.03
2022-12-04T00:56:27.307Z,-0.02
2022-12-04T00:58:54.615Z,0.01
2022-12-04T01:01:21.158Z,0.04
2022-12-04T01:03:47.795Z,0.04
2022-12-04T01:06:29.377Z,-0.11
2022-12-04T01:08:56.094Z,-0.17
2022-12-04T01:11:22.896Z,-0.05
2022-12-04T01:13:49.304Z,-0.07
2022-12-04T01:16:23.903Z,0.01
2022-12-04T01:18:50.455Z,0.04
2022-12-04T01:21:17.134Z,-0.05
2022-12-04T01:23:44.134Z,0.09
2022-12-04T01:26:10.611Z,0.02
2022-12-04T01:28:37.015Z,0.03
2022-12-04T01:31:03.393Z,0.00
2022-12-04T01:33:29.820Z,-0.03
2022-12-04T01:35:56.850Z,0.08
2022-12-04T01:38:23.488Z,0.04
2022-12-04T01:40:49.880Z,0.05
2022-12-04T01:43:16.433Z,0.04
2022-12-04T01:45:44.310Z,0.10
2022-12-04T01:48:32.040Z,0.08
2022-12-04T01:51:19.198Z,0.03
2022-12-04T01:53:48.942Z,0.00
2022-12-04T01:56:15.304Z,0.01
2022-12-04T01:58:43.715Z,-0.05
2022-12-04T02:01:10.197Z,0.03
2022-12-04T02:03:37.704Z,-0.01
2022-12-04T02:06:04.383Z,0.00
2022-12-04T02:08:30.781Z,-0.01
2022-12-04T02:11:05.377Z,-0.03
2022-12-04T02:13:37.737Z,0.05
2022-12-04T02:16:23.966Z,0.00
2022-12-04T02:18:58.954Z,0.05
2022-12-04T02:21:38.031Z,0.01
2022-12-04T02:24:13.569Z,-0.02
2022-12-04T02:26:50.152Z,-0.01
2022-12-04T02:29:45.974Z,-0.01
2022-12-04T02:32:22.294Z,-0.06
2022-12-04T02:35:00.727Z,-0.05
2022-12-04T02:37:32.404Z,0.00
2022-12-04T02:39:58.869Z,-0.05
2022-12-04T02:42:31.510Z,-0.01
2022-12-04T02:45:06.526Z,-0.07
2022-12-04T02:47:33.008Z,0.01
2022-12-04T02:50:00.160Z,0.05
2022-12-04T02:52:32.332Z,0.03
2022-12-04T02:55:07.984Z,0.09
2022-12-04T02:57:36.301Z,0.02
2022-12-04T03:00:05.597Z,0.05
2022-12-04T03:02:35.204Z,0.06
2022-12-04T03:05:06.531Z,0.03
2022-12-04T03:08:00.781Z,0.03
2022-12-04T03:10:32.752Z,0.03
2022-12-04T03:13:01.926Z,0.05
2022-12-04T03:15:33.935Z,0.03
2022-12-04T03:18:06.178Z,0.05
2022-12-04T03:20:33.132Z,0.04
2022-12-04T03:23:03.054Z,0.08
2022-12-04T03:25:33.392Z,0.10
2022-12-04T03:28:08.460Z,0.03
2022-12-04T03:30:42.104Z,0.00
2022-12-04T03:33:14.575Z,0.01
2022-12-04T03:35:55.807Z,-0.01
2022-12-04T03:38:23.910Z,0.08
2022-12-04T03:41:01.473Z,0.13
2022-12-04T03:43:44.689Z,0.07
2022-12-04T03:46:39.512Z,0.10
2022-12-04T03:49:05.931Z,0.13
2022-12-04T03:51:39.119Z,0.15
2022-12-04T03:54:09.971Z,0.25
2022-12-04T03:56:38.741Z,0.24
2022-12-04T03:59:09.188Z,0.28
2022-12-04T04:01:38.907Z,0.31
2022-12-04T04:04:07.494Z,0.28
2022-12-04T04:06:37.838Z,0.16
2022-12-04T04:09:06.248Z,0.15
2022-12-04T04:12:08.119Z,0.19
2022-12-04T04:15:27.261Z,0.12
2022-12-04T04:18:12.384Z,0.13
2022-12-04T04:21:00.059Z,0.12
2022-12-04T04:23:45.503Z,0.22
2022-12-04T04:26:12.183Z,0.19
2022-12-04T04:28:40.597Z,0.17
2022-12-04T04:31:17.231Z,0.19
2022-12-04T04:34:05.217Z,0.25
2022-12-04T04:36:37.751Z,0.23
2022-12-04T04:39:16.176Z,0.28
2022-12-04T04:41:48.474Z,0.29
2022-12-04T04:44:20.728Z,0.33
2022-12-04T04:46:51.247Z,0.30
2022-12-04T04:49:17.674Z,0.30
2022-12-04T04:51:44.156Z,0.27
2022-12-04T04:54:11.877Z,0.18
2022-12-04T04:56:42.535Z,0.25
2022-12-04T04:59:08.915Z,0.28
2022-12-04T05:01:35.571Z,0.21
2022-12-04T05:04:03.765Z,0.23
2022-12-04T05:06:30.108Z,0.32
2022-12-04T05:08:56.464Z,0.28
2022-12-04T05:11:22.798Z,0.35
2022-12-04T05:13:49.170Z,0.32
2022-12-04T05:16:15.728Z,0.37
2022-12-04T05:19:02.311Z,0.40
2022-12-04T05:21:28.703Z,0.42
2022-12-04T05:23:55.069Z,0.43
2022-12-04T05:26:21.432Z,0.45
2022-12-04T05:28:47.780Z,0.43
2022-12-04T05:31:14.183Z,0.41
2022-12-04T05:33:40.689Z,0.33
2022-12-04T05:36:08.410Z,0.31
2022-12-04T05:38:35.072Z,0.34
2022-12-04T05:41:02.060Z,0.41
2022-12-04T05:43:28.473Z,0.33
2022-12-04T05:45:54.938Z,0.37
2022-12-04T05:48:21.320Z,0.39
2022-12-04T05:50:47.654Z,0.38
2022-12-04T05:53:14.028Z,0.42
2022-12-04T05:55:40.430Z,0.40
2022-12-04T05:58:06.796Z,0.28
2022-12-04T06:00:33.149Z,0.22
2022-12-04T06:02:59.604Z,0.32
2022-12-04T06:05:25.989Z,0.37
2022-12-04T06:07:52.427Z,0.45
2022-12-04T06:10:18.869Z,0.40
2022-12-04T06:12:45.246Z,0.35
2022-12-04T06:15:11.618Z,0.37
2022-12-04T06:17:37.960Z,0.40
2022-12-04T06:20:10.930Z,0.46
2022-12-04T06:22:37.896Z,0.40
2022-12-04T06:25:04.556Z,0.43
2022-12-04T06:27:30.905Z,0.45
2022-12-04T06:29:57.566Z,0.47
2022-12-04T06:32:24.183Z,0.46
2022-12-04T06:34:52.663Z,0.41
2022-12-04T06:37:19.635Z,0.38
2022-12-04T06:39:45.983Z,0.33
2022-12-04T06:42:12.344Z,0.32
2022-12-04T06:44:38.684Z,0.32
2022-12-04T06:47:05.329Z,0.33
2022-12-04T06:49:31.708Z,0.32
2022-12-04T06:51:58.068Z,0.30
2022-12-04T06:54:24.611Z,0.31
2022-12-04T06:56:51.048Z,0.32
2022-12-04T06:59:17.456Z,0.32
2022-12-04T07:01:43.810Z,0.32
2022-12-04T07:04:10.218Z,0.30
2022-12-04T07:06:37.808Z,0.27
2022-12-04T07:09:05.625Z,0.33
2022-12-04T07:11:32.004Z,0.31
2022-12-04T07:13:58.430Z,0.26
2022-12-04T07:16:25.502Z,0.36
2022-12-04T07:18:53.890Z,0.38
2022-12-04T07:21:21.659Z,0.33
2022-12-04T07:23:52.166Z,0.36
2022-12-04T07:26:18.833Z,0.39
2022-12-04T07:28:45.207Z,0.32
2022-12-04T07:31:16.787Z,0.34
2022-12-04T07:33:43.273Z,0.32
2022-12-04T07:36:12.627Z,0.29
2022-12-04T07:38:39.025Z,0.35
2022-12-04T07:41:06.304Z,0.40
2022-12-04T07:43:32.779Z,0.28
2022-12-04T07:45:59.498Z,0.35
2022-12-04T07:48:31.765Z,0.28
2022-12-04T07:51:07.033Z,0.25
2022-12-04T07:53:33.753Z,0.28
2022-12-04T07:56:00.108Z,0.31
2022-12-04T07:58:26.470Z,0.26
2022-12-04T08:00:52.895Z,0.30
2022-12-04T08:03:19.718Z,0.31
2022-12-04T08:05:46.059Z,0.25
2022-12-04T08:08:12.518Z,0.25
2022-12-04T08:10:41.997Z,0.29
2022-12-04T08:13:08.374Z,0.32
2022-12-04T08:15:35.192Z,0.31
2022-12-04T08:18:01.632Z,0.35
2022-12-04T08:20:27.986Z,0.31
2022-12-04T08:22:54.360Z,0.33
2022-12-04T08:25:20.716Z,0.30
2022-12-04T08:27:47.960Z,0.35
2022-12-04T08:30:14.467Z,0.30
2022-12-04T08:32:40.875Z,0.31
2022-12-04T08:35:07.608Z,0.37
2022-12-04T08:37:33.976Z,0.31
2022-12-04T08:40:00.326Z,0.34
2022-12-04T08:42:26.725Z,0.32
2022-12-04T08:44:53.074Z,0.37
2022-12-04T08:47:19.472Z,0.45
2022-12-04T08:49:45.822Z,0.42
2022-12-04T08:52:12.193Z,0.38
2022-12-04T08:54:38.576Z,0.47
2022-12-04T08:57:05.020Z,0.43
2022-12-04T08:59:31.469Z,0.51
2022-12-04T09:01:57.957Z,0.46
2022-12-04T09:04:24.374Z,0.46
2022-12-04T09:06:50.768Z,0.50
2022-12-04T09:09:17.245Z,0.42
2022-12-04T09:11:45.281Z,0.45
2022-12-04T09:14:11.719Z,0.48
2022-12-04T09:16:38.131Z,0.44
2022-12-04T09:19:04.550Z,0.37
2022-12-04T09:21:30.910Z,0.44
2022-12-04T09:23:58.888Z,0.44
2022-12-04T09:26:27.152Z,0.49
2022-12-04T09:28:54.144Z,0.41
2022-12-04T09:31:20.905Z,0.43
2022-12-04T09:33:47.674Z,0.42
2022-12-04T09:36:16.239Z,0.41
2022-12-04T09:38:44.408Z,0.44
2022-12-04T09:41:31.039Z,0.46
2022-12-04T09:44:10.885Z,0.44
2022-12-04T09:46:49.541Z,0.45
2022-12-04T09:49:24.172Z,0.46
2022-12-04T09:51:51.357Z,0.47
2022-12-04T09:54:21.716Z,0.54
2022-12-04T09:56:55.491Z,0.59
2022-12-04T09:59:23.717Z,0.65
2022-12-04T10:02:17.645Z,0.63
2022-12-04T10:04:44.187Z,0.64
2022-12-04T10:07:12.108Z,0.70
2022-12-04T10:10:09.402Z,0.66
2022-12-04T10:12:48.704Z,0.60
2022-12-04T10:15:56.589Z,0.62
2022-12-04T10:18:35.846Z,0.61
2022-12-04T10:21:19.787Z,0.62
2022-12-04T10:24:06.067Z,0.61
2022-12-04T10:26:36.068Z,0.68
2022-12-04T10:29:34.918Z,0.68
2022-12-04T10:32:17.739Z,0.70
2022-12-04T10:34:45.953Z,0.73
2022-12-04T10:37:13.438Z,0.78
2022-12-04T10:39:58.656Z,0.76
2022-12-04T10:42:31.547Z,0.71
2022-12-04T10:44:57.907Z,0.76
2022-12-04T10:47:24.731Z,0.73
2022-12-04T10:50:05.918Z,0.79
2022-12-04T10:52:32.272Z,0.77
2022-12-04T10:54:59.764Z,0.70
2022-12-04T10:57:46.027Z,0.73
2022-12-04T11:00:32.531Z,0.84
2022-12-04T11:03:04.115Z,0.81
2022-12-04T11:05:35.587Z,0.81
2022-12-04T11:08:04.185Z,0.81
2022-12-04T11:10:41.022Z,0.82
2022-12-04T11:13:14.438Z,0.82
2022-12-04T11:15:43.546Z,0.78
2022-12-04T11:18:18.869Z,0.89
2022-12-04T11:21:01.799Z,0.83
2022-12-04T11:23:30.638Z,0.88
2022-12-04T11:26:03.765Z,0.85
2022-12-04T11:28:47.366Z,0.82
2022-12-04T11:31:17.913Z,0.78
2022-12-04T11:33:55.256Z,0.80
2022-12-04T11:36:27.012Z,0.79
2022-12-04T11:38:54.400Z,0.80
2022-12-04T11:41:28.579Z,0.88
2022-12-04T11:43:59.590Z,0.90
2022-12-04T11:46:29.263Z,0.86
2022-12-04T11:48:55.805Z,0.92
2022-12-04T11:51:24.894Z,0.98
2022-12-04T11:53:55.601Z,1.01
2022-12-04T11:56:50.693Z,0.97
2022-12-04T11:59:35.159Z,1.01
2022-12-04T12:02:26.565Z,0.90
2022-12-04T12:05:08.461Z,0.91
2022-12-04T12:08:03.088Z,0.98
2022-12-04T12:10:38.908Z,0.94
2022-12-04T12:13:34.747Z,0.99
2022-12-04T12:16:21.395Z,1.09
2022-12-04T12:19:09.766Z,1.05
2022-12-04T12:21:43.240Z,1.02
2022-12-04T12:24:13.554Z,1.00
2022-12-04T12:26:43.940Z,0.90
2022-12-04T12:29:33.831Z,0.92
2022-12-04T12:32:19.296Z,0.93
2022-12-04T12:34:45.708Z,0.91
2022-12-04T12:37:30.671Z,0.96
2022-12-04T12:39:59.081Z,1.00
2022-12-04T12:42:30.699Z,0.98
2022-12-04T12:45:22.888Z,1.05
2022-12-04T12:47:49.475Z,1.07
2022-12-04T12:50:33.344Z,1.06
2022-12-04T12:53:07.775Z,1.08
2022-12-04T12:55:37.033Z,1.04
2022-12-04T12:58:13.620Z,1.07
2022-12-04T13:01:18.086Z,1.11
2022-12-04T13:03:55.342Z,1.06
2022-12-04T13:06:37.201Z,1.12
2022-12-04T13:09:26.350Z,1.10
2022-12-04T13:11:57.020Z,1.16
2022-12-04T13:14:23.428Z,1.13
2022-12-04T13:16:57.496Z,1.18
2022-12-04T13:19:32.854Z,1.19
2022-12-04T13:22:29.535Z,1.14
2022-12-04T13:25:19.397Z,1.14
2022-12-04T13:28:00.982Z,1.13
2022-12-04T13:30:57.225Z,1.14
2022-12-04T13:33:30.179Z,1.15
2022-12-04T13:36:12.072Z,1.21
2022-12-04T13:38:58.453Z,1.16
2022-12-04T13:41:25.160Z,1.10
2022-12-04T13:43:52.426Z,1.12
2022-12-04T13:46:34.202Z,1.10
2022-12-04T13:49:22.064Z,1.12
2022-12-04T13:51:48.797Z,1.13
2022-12-04T13:54:15.127Z,1.13
2022-12-04T13:56:45.703Z,1.06
2022-12-04T13:59:27.443Z,1.05
2022-12-04T14:02:07.719Z,1.04
2022-12-04T14:04:44.254Z,1.05
2022-12-04T14:07:34.014Z,1.05
2022-12-04T14:10:34.389Z,1.03
2022-12-04T14:13:43.461Z,1.06
2022-12-04T14:16:26.540Z,1.01
2022-12-04T14:18:55.107Z,1.04
2022-12-04T14:21:21.500Z,1.07
2022-12-04T14:23:47.900Z,1.10
2022-12-04T14:26:55.824Z,1.04
2022-12-04T14:29:30.190Z,1.03
2022-12-04T14:31:58.478Z,1.03
2022-12-04T14:34:31.968Z,1.03
2022-12-04T14:36:58.504Z,0.99
2022-12-04T14:39:26.255Z,1.07
2022-12-04T14:41:53.344Z,1.07
2022-12-04T14:44:28.462Z,1.02
2022-12-04T14:47:19.267Z,1.02
2022-12-04T14:49:54.827Z,1.00
2022-12-04T14:52:27.242Z,0.99
2022-12-04T14:55:07.462Z,1.01
2022-12-04T14:57:54.655Z,1.05
2022-12-04T15:00:22.294Z,1.03
2022-12-04T15:02:50.244Z,1.03
2022-12-04T15:05:25.613Z,1.00
2022-12-04T15:07:54.023Z,1.04
2022-12-04T15:10:42.185Z,1.02
2022-12-04T15:13:08.556Z,1.04
2022-12-04T15:15:35.169Z,1.11
2022-12-04T15:18:02.595Z,1.11
2022-12-04T15:20:39.100Z,1.11
2022-12-04T15:23:05.839Z,1.08
2022-12-04T15:25:40.673Z,1.10
2022-12-04T15:28:11.885Z,1.13
2022-12-04T15:30:38.328Z,1.10
2022-12-04T15:33:04.700Z,1.08
2022-12-04T15:35:31.982Z,1.09
2022-12-04T15:37:58.386Z,1.16
2022-12-04T15:40:26.753Z,1.21
2022-12-04T15:42:53.584Z,1.13
2022-12-04T15:45:19.971Z,1.10
2022-12-04T15:47:46.327Z,1.11
2022-12-04T15:50:15.785Z,1.17
2022-12-04T15:53:23.492Z,1.23
2022-12-04T15:55:52.012Z,1.25
2022-12-04T15:58:26.654Z,1.18
2022-12-04T16:01:09.726Z,1.18
2022-12-04T16:03:42.230Z,1.26
2022-12-04T16:06:18.921Z,1.23
2022-12-04T16:08:47.132Z,1.23
2022-12-04T16:11:22.701Z,1.19
2022-12-04T16:14:01.707Z,1.17
2022-12-04T16:16:28.197Z,1.18
2022-12-04T16:18:54.562Z,1.14
2022-12-04T16:21:22.379Z,1.11
2022-12-04T16:23:48.808Z,1.14
2022-12-04T16:26:16.682Z,1.15
2022-12-04T16:28:43.088Z,1.15
2022-12-04T16:31:11.462Z,1.16
2022-12-04T16:33:37.936Z,1.15
2022-12-04T16:36:04.431Z,1.16
2022-12-04T16:38:30.821Z,1.12
2022-12-04T16:40:57.177Z,1.14
2022-12-04T16:43:23.734Z,1.18
2022-12-04T16:45:54.015Z,1.20
2022-12-04T16:48:20.537Z,1.17
2022-12-04T16:50:47.062Z,1.19
2022-12-04T16:53:17.310Z,1.19
2022-12-04T16:55:48.287Z,1.16
2022-12-04T16:58:14.876Z,1.19
2022-12-04T17:00:43.574Z,1.27
2022-12-04T17:03:23.905Z,1.24
2022-12-04T17:05:50.453Z,1.23
2022-12-04T17:08:17.025Z,1.22
2022-12-04T17:10:43.409Z,1.23
2022-12-04T17:13:09.768Z,1.28
2022-12-04T17:15:36.213Z,1.27
2022-12-04T17:18:05.974Z,1.28
2022-12-04T17:20:36.990Z,1.23
2022-12-04T17:23:03.350Z,1.24
2022-12-04T17:25:29.806Z,1.33
2022-12-04T17:27:56.172Z,1.35
2022-12-04T17:30:22.564Z,1.32
2022-12-04T17:32:49.197Z,1.31
2022-12-04T17:35:15.555Z,1.36
2022-12-04T17:37:41.937Z,1.32
2022-12-04T17:40:10.367Z,1.37
2022-12-04T17:42:36.745Z,1.42
2022-12-04T17:45:03.330Z,1.42
2022-12-04T17:47:29.674Z,1.40
2022-12-04T17:49:56.156Z,1.41
2022-12-04T17:52:22.655Z,1.43
2022-12-04T17:54:50.021Z,1.42
2022-12-04T17:57:16.897Z,1.40
2022-12-04T17:59:44.363Z,1.44
2022-12-04T18:02:11.806Z,1.36
2022-12-04T18:04:38.199Z,1.39
2022-12-04T18:07:04.594Z,1.39
2022-12-04T18:09:31.830Z,1.39
2022-12-04T18:11:58.570Z,1.39
2022-12-04T18:14:25.048Z,1.41
2022-12-04T18:16:53.133Z,1.41
2022-12-04T18:19:20.837Z,1.40
2022-12-04T18:21:47.205Z,1.38
2022-12-04T18:24:13.991Z,1.36
2022-12-04T18:26:42.054Z,1.40
2022-12-04T18:29:09.354Z,1.42
2022-12-04T18:31:35.790Z,1.44
2022-12-04T18:34:02.240Z,1.37
2022-12-04T18:36:30.155Z,1.39
2022-12-04T18:39:13.648Z,1.36
2022-12-04T18:41:40.037Z,1.36
2022-12-04T18:44:06.449Z,1.40
2022-12-04T18:46:33.062Z,1.42
2022-12-04T18:48:59.971Z,1.40
2022-12-04T18:51:29.474Z,1.42
2022-12-04T18:53:58.461Z,1.40
2022-12-04T18:56:24.959Z,1.37
2022-12-04T18:58:56.746Z,1.40
2022-12-04T19:01:23.232Z,1.40
2022-12-04T19:03:49.624Z,1.41
2022-12-04T19:06:16.061Z,1.43
2022-12-04T19:08:43.176Z,1.47
2022-12-04T19:11:14.244Z,1.45
2022-12-04T19:13:40.796Z,1.44
2022-12-04T19:16:14.925Z,1.45
2022-12-04T19:18:42.325Z,1.46
2022-12-04T19:21:08.736Z,1.45
2022-12-04T19:23:35.098Z,1.50
2022-12-04T19:26:01.572Z,1.49
2022-12-04T19:28:28.197Z,1.48
2022-12-04T19:30:54.689Z,1.47
2022-12-04T19:33:21.498Z,1.50
2022-12-04T19:36:01.880Z,1.51
2022-12-04T19:38:28.816Z,1.49
2022-12-04T19:41:22.659Z,1.54
2022-12-04T19:43:50.230Z,1.57
2022-12-04T19:46:19.017Z,1.48
2022-12-04T19:48:47.269Z,1.53
2022-12-04T19:51:15.363Z,1.55
2022-12-04T19:53:42.693Z,1.51
2022-12-04T19:56:13.925Z,1.58
2022-12-04T19:58:40.421Z,1.60
2022-12-04T20:01:08.814Z,1.54
2022-12-04T20:03:35.299Z,1.54
2022-12-04T20:06:09.038Z,1.57
2022-12-04T20:08:35.493Z,1.58
2022-12-04T20:11:06.091Z,1.58
2022-12-04T20:13:34.882Z,1.65
2022-12-04T20:16:02.655Z,1.58
2022-12-04T20:18:29.061Z,1.58
2022-12-04T20:20:56.362Z,1.61
2022-12-04T20:23:22.778Z,1.56
2022-12-04T20:25:49.158Z,1.59
2022-12-04T20:28:15.600Z,1.55
2022-12-04T20:30:42.011Z,1.62
2022-12-04T20:33:08.469Z,1.58
2022-12-04T20:35:35.870Z,1.61
2022-12-04T20:38:02.874Z,1.58
2022-12-04T20:40:29.224Z,1.60
2022-12-04T20:42:55.560Z,1.63
2022-12-04T20:45:21.911Z,1.62
2022-12-04T20:47:48.265Z,1.67
2022-12-04T20:50:14.668Z,1.61
2022-12-04T20:52:41.040Z,1.68
2022-12-04T20:55:08.871Z,1.70
2022-12-04T20:57:35.289Z,1.59
2022-12-04T21:00:01.723Z,1.65
2022-12-04T21:02:28.199Z,1.67
2022-12-04T21:04:54.583Z,1.73
2022-12-04T21:07:20.933Z,1.77
2022-12-04T21:09:47.319Z,1.74
2022-12-04T21:12:32.290Z,1.72
2022-12-04T21:15:17.252Z,1.77
2022-12-04T21:17:43.641Z,1.71
2022-12-04T21:20:10.419Z,1.74
2022-12-04T21:22:37.323Z,1.69
2022-12-04T21:25:04.097Z,1.75
2022-12-04T21:27:30.587Z,1.77
2022-12-04T21:29:57.421Z,1.84
2022-12-04T21:32:23.999Z,1.81
2022-12-04T21:34:51.850Z,1.82
2022-12-04T21:37:18.196Z,1.80
2022-12-04T21:39:44.613Z,1.76
2022-12-04T21:42:29.551Z,1.75
2022-12-04T21:44:57.018Z,1.78
2022-12-04T21:47:23.423Z,1.77
2022-12-04T21:49:49.775Z,1.77
2022-12-04T21:52:16.379Z,1.80
2022-12-04T21:54:42.734Z,1.80
2022-12-04T21:57:09.114Z,1.76
2022-12-04T21:59:35.560Z,1.78
2022-12-04T22:02:02.113Z,1.77
2022-12-04T22:04:28.583Z,1.74
2022-12-04T22:06:54.960Z,1.77
2022-12-04T22:09:21.413Z,1.76
2022-12-04T22:11:47.807Z,1.76
2022-12-04T22:14:14.175Z,1.81
2022-12-04T22:16:42.880Z,1.80
2022-12-04T22:19:10.285Z,1.80
2022-12-04T22:21:36.674Z,1.78
2022-12-04T22:24:03.615Z,1.77
2022-12-04T22:26:30.259Z,1.80
2022-12-04T22:28:57.463Z,1.78
2022-12-04T22:31:25.830Z,1.82
2022-12-04T22:33:53.277Z,1.84
2022-12-04T22:36:29.693Z,1.81
2022-12-04T22:39:09.335Z,1.78
2022-12-04T22:41:36.787Z,1.78
2022-12-04T22:44:03.255Z,1.80
2022-12-04T22:46:29.700Z,1.86
2022-12-04T22:48:56.200Z,1.91
2022-12-04T22:51:22.829Z,1.84
2022-12-04T22:53:51.637Z,1.83
2022-12-04T22:56:36.223Z,1.85
2022-12-04T22:59:02.573Z,1.83
2022-12-04T23:01:32.880Z,1.80
2022-12-04T23:03:59.374Z,1.83
2022-12-04T23:06:26.964Z,1.86
2022-12-04T23:09:08.293Z,1.88
2022-12-04T23:11:35.260Z,1.85
2022-12-04T23:14:03.605Z,1.89
2022-12-04T23:16:31.065Z,1.92
2022-12-04T23:18:57.708Z,1.85
2022-12-04T23:21:24.124Z,1.83
2022-12-04T23:23:51.210Z,1.80
2022-12-04T23:26:20.102Z,1.81
2022-12-04T23:28:46.596Z,1.77
2022-12-04T23:31:13.342Z,1.78
2022-12-04T23:33:40.053Z,1.79
2022-12-04T23:36:07.157Z,1.84
2022-12-04T23:38:34.639Z,1.86
2022-12-04T23:41:08.469Z,1.84
2022-12-04T23:43:34.968Z,1.86
2022-12-04T23:46:04.582Z,1.86
2022-12-04T23:48:35.441Z,1.87
2022-12-04T23:51:01.798Z,1.93
2022-12-04T23:53:28.220Z,1.87
2022-12-04T23:55:58.744Z,1.90
2022-12-04T23:58:25.260Z,1.93
